createdAt,value
2019-03-15T00:00:15.958Z,8.26
2019-03-15T00:00:42.256Z,8.31
2019-03-15T00:01:08.367Z,8.33
2019-03-15T00:01:34.472Z,8.34
2019-03-15T00:02:00.579Z,8.3
2019-03-15T00:02:26.721Z,8.28
2019-03-15T00:02:52.823Z,8.38
2019-03-15T00:03:18.935Z,8.33
2019-03-15T00:03:45.044Z,8.3
2019-03-15T00:04:11.278Z,8.36
2019-03-15T00:04:39.792Z,8.38
2019-03-15T00:05:04.380Z,8.36
2019-03-15T00:05:30.492Z,8.31
2019-03-15T00:05:56.594Z,8.28
2019-03-15T00:06:22.706Z,8.18
2019-03-15T00:06:48.809Z,8.16
2019-03-15T00:07:15.448Z,8.16
2019-03-15T00:07:41.318Z,8.23
2019-03-15T00:08:07.398Z,8.13
2019-03-15T00:08:33.505Z,8.18
2019-03-15T00:08:59.609Z,8.19
2019-03-15T00:09:25.717Z,8.23
2019-03-15T00:09:51.825Z,8.27
2019-03-15T00:10:17.937Z,8.28
2019-03-15T00:10:44.458Z,8.33
2019-03-15T00:11:10.560Z,8.27
2019-03-15T00:11:36.667Z,8.27
2019-03-15T00:12:02.770Z,8.28
2019-03-15T00:12:28.880Z,8.27
2019-03-15T00:12:54.980Z,8.31
2019-03-15T00:13:21.085Z,8.3
2019-03-15T00:13:47.196Z,8.18
2019-03-15T00:14:13.306Z,8.19
2019-03-15T00:14:39.419Z,8.18
2019-03-15T00:15:05.678Z,8.13
2019-03-15T00:15:31.788Z,8.16
2019-03-15T00:15:57.898Z,8.27
2019-03-15T00:16:24.001Z,8.28
2019-03-15T00:16:50.379Z,8.28
2019-03-15T00:17:16.490Z,8.27
2019-03-15T00:17:42.590Z,8.28
2019-03-15T00:18:08.694Z,8.34
2019-03-15T00:18:34.801Z,8.42
2019-03-15T00:19:00.914Z,8.34
2019-03-15T00:19:27.018Z,8.28
2019-03-15T00:19:53.177Z,8.3
2019-03-15T00:20:19.332Z,8.3
2019-03-15T00:20:45.434Z,8.38
2019-03-15T00:21:11.547Z,8.36
2019-03-15T00:21:37.657Z,8.34
2019-03-15T00:22:03.783Z,8.36
2019-03-15T00:22:29.898Z,8.38
2019-03-15T00:22:55.998Z,8.45
2019-03-15T00:23:22.131Z,8.44
2019-03-15T00:23:48.239Z,8.41
2019-03-15T00:24:14.347Z,8.49
2019-03-15T00:24:40.458Z,8.46
2019-03-15T00:25:06.594Z,8.42
2019-03-15T00:25:32.704Z,8.44
2019-03-15T00:25:59.796Z,8.42
2019-03-15T00:26:25.912Z,8.42
2019-03-15T00:26:52.015Z,8.33
2019-03-15T00:27:18.119Z,8.36
2019-03-15T00:27:44.232Z,8.34
2019-03-15T00:28:10.340Z,8.26
2019-03-15T00:28:36.480Z,8.18
2019-03-15T00:29:02.586Z,8.28
2019-03-15T00:29:28.778Z,8.28
2019-03-15T00:29:54.888Z,8.33
2019-03-15T00:30:21.007Z,8.34
2019-03-15T00:30:47.951Z,8.27
2019-03-15T00:31:14.056Z,8.27
2019-03-15T00:31:40.159Z,8.19
2019-03-15T00:32:06.278Z,8.28
2019-03-15T00:32:32.378Z,8.3
2019-03-15T00:32:58.626Z,8.31
2019-03-15T00:33:24.863Z,8.31
2019-03-15T00:33:50.971Z,8.28
2019-03-15T00:34:17.076Z,8.28
2019-03-15T00:34:43.189Z,8.3
2019-03-15T00:35:09.665Z,8.27
2019-03-15T00:35:35.930Z,8.28
2019-03-15T00:36:01.958Z,8.31
2019-03-15T00:36:28.076Z,8.28
2019-03-15T00:36:54.213Z,8.19
2019-03-15T00:37:20.315Z,8.28
2019-03-15T00:37:46.596Z,8.26
2019-03-15T00:38:12.707Z,8.28
2019-03-15T00:38:39.587Z,8.38
2019-03-15T00:39:05.720Z,8.27
2019-03-15T00:39:32.323Z,8.31
2019-03-15T00:39:58.442Z,8.28
2019-03-15T00:40:24.554Z,8.3
2019-03-15T00:40:50.665Z,8.38
2019-03-15T00:41:16.816Z,8.28
2019-03-15T00:41:42.928Z,8.31
2019-03-15T00:42:09.039Z,8.33
2019-03-15T00:42:35.165Z,8.37
2019-03-15T00:43:01.311Z,8.3
2019-03-15T00:43:27.415Z,8.3
2019-03-15T00:43:54.552Z,8.3
2019-03-15T00:44:20.658Z,8.33
2019-03-15T00:44:46.764Z,8.33
2019-03-15T00:45:13.657Z,8.34
2019-03-15T00:45:39.777Z,8.34
2019-03-15T00:46:05.910Z,8.3
2019-03-15T00:46:32.023Z,8.34
2019-03-15T00:46:58.128Z,8.33
2019-03-15T00:47:24.245Z,8.33
2019-03-15T00:47:50.361Z,8.34
2019-03-15T00:48:16.467Z,8.41
2019-03-15T00:48:42.603Z,8.42
2019-03-15T00:49:08.706Z,8.37
2019-03-15T00:49:34.830Z,8.41
2019-03-15T00:50:00.936Z,8.34
2019-03-15T00:50:27.041Z,8.45
2019-03-15T00:50:53.149Z,8.45
2019-03-15T00:51:19.295Z,8.45
2019-03-15T00:51:45.443Z,8.44
2019-03-15T00:52:11.555Z,8.48
2019-03-15T00:52:37.670Z,8.46
2019-03-15T00:53:03.956Z,8.45
2019-03-15T00:53:30.187Z,8.38
2019-03-15T00:53:57.319Z,8.46
2019-03-15T00:54:23.418Z,8.44
2019-03-15T00:54:49.530Z,8.46
2019-03-15T00:55:15.636Z,8.46
2019-03-15T00:55:41.738Z,8.38
2019-03-15T00:56:07.889Z,8.37
2019-03-15T00:56:34.063Z,8.33
2019-03-15T00:57:00.166Z,8.3
2019-03-15T00:57:26.281Z,8.28
2019-03-15T00:57:52.387Z,8.37
2019-03-15T00:58:18.493Z,8.37
2019-03-15T00:58:44.607Z,8.42
2019-03-15T00:59:10.763Z,8.38
2019-03-15T00:59:36.863Z,8.41
2019-03-15T01:00:02.978Z,8.41
2019-03-15T01:00:29.086Z,8.37
2019-03-15T01:00:55.437Z,8.31
2019-03-15T01:01:21.582Z,8.38
2019-03-15T01:01:47.682Z,8.37
2019-03-15T01:02:13.825Z,8.38
2019-03-15T01:02:39.936Z,8.3
2019-03-15T01:03:06.047Z,8.34
2019-03-15T01:03:32.153Z,8.38
2019-03-15T01:03:58.304Z,8.38
2019-03-15T01:04:25.281Z,8.33
2019-03-15T01:04:51.393Z,8.41
2019-03-15T01:05:17.533Z,8.45
2019-03-15T01:05:43.635Z,8.38
2019-03-15T01:06:10.258Z,8.48
2019-03-15T01:06:36.402Z,8.46
2019-03-15T01:07:02.567Z,8.41
2019-03-15T01:07:28.681Z,8.48
2019-03-15T01:07:54.789Z,8.42
2019-03-15T01:08:21.880Z,8.44
2019-03-15T01:08:47.996Z,8.36
2019-03-15T01:09:14.099Z,8.33
2019-03-15T01:09:40.239Z,8.33
2019-03-15T01:10:06.348Z,8.36
2019-03-15T01:10:32.454Z,8.36
2019-03-15T01:10:58.567Z,8.41
2019-03-15T01:11:24.824Z,8.41
2019-03-15T01:11:51.025Z,8.37
2019-03-15T01:12:17.135Z,8.42
2019-03-15T01:12:43.237Z,8.3
2019-03-15T01:13:09.346Z,8.33
2019-03-15T01:13:35.460Z,8.3
2019-03-15T01:14:01.559Z,8.34
2019-03-15T01:14:27.666Z,8.34
2019-03-15T01:14:53.809Z,8.33
2019-03-15T01:15:19.922Z,8.28
2019-03-15T01:15:46.778Z,8.34
2019-03-15T01:16:13.742Z,8.36
2019-03-15T01:16:40.046Z,8.3
2019-03-15T01:17:06.200Z,8.34
2019-03-15T01:17:32.341Z,8.33
2019-03-15T01:17:58.450Z,8.38
2019-03-15T01:18:24.554Z,8.31
2019-03-15T01:18:50.654Z,8.28
2019-03-15T01:19:16.758Z,8.34
2019-03-15T01:19:42.870Z,8.3
2019-03-15T01:20:08.971Z,8.41
2019-03-15T01:20:35.106Z,8.31
2019-03-15T01:21:01.210Z,8.37
2019-03-15T01:21:27.322Z,8.36
2019-03-15T01:21:53.432Z,8.36
2019-03-15T01:22:19.556Z,8.38
2019-03-15T01:22:45.660Z,8.44
2019-03-15T01:23:11.768Z,8.42
2019-03-15T01:23:37.873Z,8.42
2019-03-15T01:24:03.984Z,8.45
2019-03-15T01:24:30.088Z,8.37
2019-03-15T01:24:56.199Z,8.36
2019-03-15T01:25:22.300Z,8.34
2019-03-15T01:25:48.406Z,8.42
2019-03-15T01:26:14.507Z,8.44
2019-03-15T01:26:40.618Z,8.37
2019-03-15T01:27:06.727Z,8.42
2019-03-15T01:27:32.844Z,8.41
2019-03-15T01:27:58.969Z,8.42
2019-03-15T01:28:25.075Z,8.44
2019-03-15T01:28:51.186Z,8.38
2019-03-15T01:29:17.297Z,8.42
2019-03-15T01:29:43.466Z,8.34
2019-03-15T01:30:09.571Z,8.36
2019-03-15T01:30:35.680Z,8.38
2019-03-15T01:31:01.793Z,8.37
2019-03-15T01:31:27.896Z,8.41
2019-03-15T01:31:54.013Z,8.46
2019-03-15T01:32:20.117Z,8.34
2019-03-15T01:32:46.220Z,8.33
2019-03-15T01:33:12.363Z,8.33
2019-03-15T01:33:38.464Z,8.34
2019-03-15T01:34:04.599Z,8.3
2019-03-15T01:34:30.770Z,8.27
2019-03-15T01:34:56.880Z,8.38
2019-03-15T01:35:23.015Z,8.34
2019-03-15T01:35:49.721Z,8.38
2019-03-15T01:36:15.831Z,8.3
2019-03-15T01:36:41.960Z,8.37
2019-03-15T01:37:08.073Z,8.37
2019-03-15T01:37:34.175Z,8.34
2019-03-15T01:38:00.309Z,8.3
2019-03-15T01:38:26.418Z,8.37
2019-03-15T01:38:52.525Z,8.45
2019-03-15T01:39:18.666Z,8.33
2019-03-15T01:39:45.769Z,8.49
2019-03-15T01:40:11.874Z,8.37
2019-03-15T01:40:38.908Z,8.48
2019-03-15T01:41:05.385Z,8.48
2019-03-15T01:41:31.486Z,8.48
2019-03-15T01:41:57.588Z,8.33
2019-03-15T01:42:23.700Z,8.37
2019-03-15T01:42:49.837Z,8.33
2019-03-15T01:43:15.947Z,8.34
2019-03-15T01:43:42.050Z,8.34
2019-03-15T01:44:08.767Z,8.41
2019-03-15T01:44:34.871Z,8.45
2019-03-15T01:45:00.986Z,8.41
2019-03-15T01:45:27.087Z,8.42
2019-03-15T01:45:53.901Z,8.31
2019-03-15T01:46:20.009Z,8.38
2019-03-15T01:46:46.141Z,8.37
2019-03-15T01:47:12.285Z,8.31
2019-03-15T01:47:38.395Z,8.31
2019-03-15T01:48:04.498Z,8.3
2019-03-15T01:48:30.599Z,8.28
2019-03-15T01:48:56.706Z,8.3
2019-03-15T01:49:22.815Z,8.28
2019-03-15T01:49:50.039Z,8.33
2019-03-15T01:50:16.177Z,8.36
2019-03-15T01:50:42.287Z,8.36
2019-03-15T01:51:08.399Z,8.36
2019-03-15T01:51:34.501Z,8.37
2019-03-15T01:52:00.644Z,8.36
2019-03-15T01:52:26.747Z,8.37
2019-03-15T01:52:52.858Z,8.34
2019-03-15T01:53:19.394Z,8.38
2019-03-15T01:53:45.522Z,8.34
2019-03-15T01:54:11.630Z,8.31
2019-03-15T01:54:37.761Z,8.36
2019-03-15T01:55:03.903Z,8.3
2019-03-15T01:55:30.022Z,8.38
2019-03-15T01:55:56.153Z,8.31
2019-03-15T01:56:22.262Z,8.3
2019-03-15T01:56:48.371Z,8.3
2019-03-15T01:57:14.533Z,8.37
2019-03-15T01:57:40.644Z,8.2
2019-03-15T01:58:06.755Z,8.28
2019-03-15T01:58:32.892Z,8.27
2019-03-15T01:58:59.004Z,8.26
2019-03-15T01:59:25.227Z,8.3
2019-03-15T01:59:51.335Z,8.31
2019-03-15T02:00:17.444Z,8.27
2019-03-15T02:00:43.990Z,8.3
2019-03-15T02:01:10.102Z,8.3
2019-03-15T02:01:36.237Z,8.19
2019-03-15T02:02:02.343Z,8.2
2019-03-15T02:02:28.448Z,8.33
2019-03-15T02:02:54.560Z,8.31
2019-03-15T02:03:21.658Z,8.28
2019-03-15T02:03:47.764Z,8.34
2019-03-15T02:04:13.876Z,8.38
2019-03-15T02:04:39.976Z,8.33
2019-03-15T02:05:06.087Z,8.34
2019-03-15T02:05:32.193Z,8.28
2019-03-15T02:05:58.307Z,8.33
2019-03-15T02:06:24.407Z,8.27
2019-03-15T02:06:50.520Z,8.33
2019-03-15T02:07:16.619Z,8.3
2019-03-15T02:07:42.727Z,8.34
2019-03-15T02:08:08.865Z,8.37
2019-03-15T02:08:34.968Z,8.27
2019-03-15T02:09:01.077Z,8.27
2019-03-15T02:09:29.080Z,8.3
2019-03-15T02:09:55.181Z,8.27
2019-03-15T02:10:22.180Z,8.37
2019-03-15T02:10:48.086Z,8.3
2019-03-15T02:11:14.287Z,8.3
2019-03-15T02:11:40.397Z,8.28
2019-03-15T02:12:06.497Z,8.27
2019-03-15T02:12:32.606Z,8.28
2019-03-15T02:12:58.705Z,8.33
2019-03-15T02:13:24.839Z,8.31
2019-03-15T02:13:50.944Z,8.38
2019-03-15T02:14:17.114Z,8.41
2019-03-15T02:14:43.306Z,8.37
2019-03-15T02:15:09.452Z,8.33
2019-03-15T02:15:35.552Z,8.33
2019-03-15T02:16:01.667Z,8.33
2019-03-15T02:16:27.770Z,8.36
2019-03-15T02:16:53.880Z,8.36
2019-03-15T02:17:19.985Z,8.28
2019-03-15T02:17:46.108Z,8.36
2019-03-15T02:18:12.232Z,8.48
2019-03-15T02:18:38.358Z,8.48
2019-03-15T02:19:05.207Z,8.37
2019-03-15T02:19:31.452Z,8.38
2019-03-15T02:19:57.561Z,8.38
2019-03-15T02:20:23.671Z,8.41
2019-03-15T02:20:49.783Z,8.41
2019-03-15T02:21:15.890Z,8.42
2019-03-15T02:21:41.997Z,8.44
2019-03-15T02:22:08.499Z,8.44
2019-03-15T02:22:34.240Z,8.45
2019-03-15T02:23:00.347Z,8.52
2019-03-15T02:23:26.464Z,8.42
2019-03-15T02:23:53.551Z,8.46
2019-03-15T02:24:19.658Z,8.46
2019-03-15T02:24:45.819Z,8.45
2019-03-15T02:25:11.961Z,8.48
2019-03-15T02:25:38.153Z,8.33
2019-03-15T02:26:04.262Z,8.28
2019-03-15T02:26:30.366Z,8.27
2019-03-15T02:26:56.482Z,8.27
2019-03-15T02:27:22.612Z,8.31
2019-03-15T02:27:48.724Z,8.3
2019-03-15T02:28:14.823Z,8.37
2019-03-15T02:28:40.938Z,8.38
2019-03-15T02:29:07.040Z,8.37
2019-03-15T02:29:33.152Z,8.34
2019-03-15T02:29:59.253Z,8.34
2019-03-15T02:30:25.441Z,8.38
2019-03-15T02:30:51.549Z,8.37
2019-03-15T02:31:17.656Z,8.3
2019-03-15T02:31:43.762Z,8.31
2019-03-15T02:32:09.870Z,8.19
2019-03-15T02:32:36.172Z,8.28
2019-03-15T02:33:02.279Z,8.38
2019-03-15T02:33:28.386Z,8.34
2019-03-15T02:33:55.089Z,8.36
2019-03-15T02:34:21.222Z,8.34
2019-03-15T02:34:48.291Z,8.41
2019-03-15T02:35:15.333Z,8.36
2019-03-15T02:35:41.468Z,8.36
2019-03-15T02:36:08.273Z,8.41
2019-03-15T02:36:35.148Z,8.41
2019-03-15T02:37:01.297Z,8.36
2019-03-15T02:37:28.038Z,8.37
2019-03-15T02:37:54.760Z,8.24
2019-03-15T02:38:21.241Z,8.27
2019-03-15T02:38:47.415Z,8.28
2019-03-15T02:39:14.558Z,8.26
2019-03-15T02:39:41.013Z,8.24
2019-03-15T02:40:07.381Z,8.23
2019-03-15T02:40:34.038Z,8.24
2019-03-15T02:41:00.136Z,8.18
2019-03-15T02:41:26.351Z,8.27
2019-03-15T02:41:53.023Z,8.28
2019-03-15T02:42:20.320Z,8.23
2019-03-15T02:42:47.403Z,8.3
2019-03-15T02:43:14.271Z,8.38
2019-03-15T02:43:40.438Z,8.34
2019-03-15T02:44:06.979Z,8.41
2019-03-15T02:44:33.139Z,8.3
2019-03-15T02:45:00.245Z,8.34
2019-03-15T02:45:27.341Z,8.33
2019-03-15T02:45:54.169Z,8.19
2019-03-15T02:46:20.284Z,8.28
2019-03-15T02:46:46.882Z,8.3
2019-03-15T02:47:13.464Z,8.3
2019-03-15T02:47:40.429Z,8.28
2019-03-15T02:48:07.399Z,8.3
2019-03-15T02:48:34.526Z,8.38
2019-03-15T02:49:00.693Z,8.37
2019-03-15T02:49:26.816Z,8.33
2019-03-15T02:49:53.169Z,8.38
2019-03-15T02:50:19.288Z,8.37
2019-03-15T02:50:45.443Z,8.3
2019-03-15T02:51:12.151Z,8.37
2019-03-15T02:51:39.016Z,8.44
2019-03-15T02:52:05.856Z,8.37
2019-03-15T02:52:31.991Z,8.44
2019-03-15T02:52:58.235Z,8.36
2019-03-15T02:53:24.359Z,8.36
2019-03-15T02:53:50.503Z,8.36
2019-03-15T02:54:16.766Z,8.37
2019-03-15T02:54:43.226Z,8.33
2019-03-15T02:55:10.188Z,8.34
2019-03-15T02:55:37.021Z,8.41
2019-03-15T02:56:04.026Z,8.42
2019-03-15T02:56:30.731Z,8.38
2019-03-15T02:56:57.830Z,8.49
2019-03-15T02:57:24.365Z,8.34
2019-03-15T02:57:51.324Z,8.34
2019-03-15T02:58:17.903Z,8.34
2019-03-15T02:58:44.032Z,8.28
2019-03-15T02:59:10.178Z,8.3
2019-03-15T02:59:36.849Z,8.36
2019-03-15T03:00:03.294Z,8.33
2019-03-15T03:00:29.945Z,8.37
2019-03-15T03:00:56.806Z,8.33
2019-03-15T03:01:23.581Z,8.44
2019-03-15T03:01:49.915Z,8.42
2019-03-15T03:02:16.512Z,8.34
2019-03-15T03:02:43.404Z,8.41
2019-03-15T03:03:09.991Z,8.38
2019-03-15T03:03:36.589Z,8.46
2019-03-15T03:04:03.030Z,8.41
2019-03-15T03:04:29.922Z,8.45
2019-03-15T03:04:56.693Z,8.37
2019-03-15T03:05:23.658Z,8.31
2019-03-15T03:05:50.268Z,8.36
2019-03-15T03:06:17.209Z,8.34
2019-03-15T03:06:44.104Z,8.28
2019-03-15T03:07:10.635Z,8.36
2019-03-15T03:07:36.951Z,8.31
2019-03-15T03:08:04.051Z,8.31
2019-03-15T03:08:30.299Z,8.31
2019-03-15T03:08:57.249Z,8.26
2019-03-15T03:09:23.702Z,8.27
2019-03-15T03:09:50.065Z,8.3
2019-03-15T03:10:17.158Z,8.42
2019-03-15T03:10:43.289Z,8.28
2019-03-15T03:11:09.438Z,8.31
2019-03-15T03:11:35.541Z,8.41
2019-03-15T03:12:01.686Z,8.28
2019-03-15T03:12:28.161Z,8.3
2019-03-15T03:12:54.639Z,8.31
2019-03-15T03:13:21.412Z,8.28
2019-03-15T03:13:47.796Z,8.33
2019-03-15T03:14:14.790Z,8.37
2019-03-15T03:14:41.584Z,8.41
2019-03-15T03:15:08.675Z,8.42
2019-03-15T03:15:35.597Z,8.42
2019-03-15T03:16:02.489Z,8.37
2019-03-15T03:16:29.390Z,8.48
2019-03-15T03:16:56.488Z,8.33
2019-03-15T03:17:23.581Z,8.28
2019-03-15T03:17:50.687Z,8.33
2019-03-15T03:18:17.708Z,8.3
2019-03-15T03:18:44.803Z,8.3
2019-03-15T03:19:11.728Z,8.31
2019-03-15T03:19:38.710Z,8.28
2019-03-15T03:20:04.887Z,8.28
2019-03-15T03:20:31.713Z,8.27
2019-03-15T03:20:58.721Z,8.27
2019-03-15T03:21:25.724Z,8.27
2019-03-15T03:21:52.705Z,8.19
2019-03-15T03:22:18.832Z,8.24
2019-03-15T03:22:45.923Z,8.36
2019-03-15T03:23:12.493Z,8.3
2019-03-15T03:23:38.636Z,8.34
2019-03-15T03:24:04.750Z,8.31
2019-03-15T03:24:30.892Z,8.38
2019-03-15T03:24:57.028Z,8.38
2019-03-15T03:25:23.158Z,8.19
2019-03-15T03:25:49.907Z,8.24
2019-03-15T03:26:16.049Z,8.15
2019-03-15T03:26:42.154Z,8.18
2019-03-15T03:27:08.254Z,8.19
2019-03-15T03:27:34.422Z,8.19
2019-03-15T03:28:01.243Z,8.26
2019-03-15T03:28:28.045Z,8.26
2019-03-15T03:28:54.288Z,8.3
2019-03-15T03:29:20.432Z,8.27
2019-03-15T03:29:47.025Z,8.3
2019-03-15T03:30:16.393Z,8.28
2019-03-15T03:30:40.457Z,8.3
2019-03-15T03:31:07.568Z,8.3
2019-03-15T03:31:34.668Z,8.36
2019-03-15T03:32:01.766Z,8.37
2019-03-15T03:32:28.941Z,8.28
2019-03-15T03:32:56.046Z,8.33
2019-03-15T03:33:23.171Z,8.38
2019-03-15T03:33:50.283Z,8.38
2019-03-15T03:34:17.400Z,8.36
2019-03-15T03:34:44.515Z,8.33
2019-03-15T03:35:11.204Z,8.28
2019-03-15T03:35:37.370Z,8.31
2019-03-15T03:36:03.451Z,8.36
2019-03-15T03:36:29.561Z,8.31
2019-03-15T03:36:57.883Z,8.33
2019-03-15T03:37:24.245Z,8.28
2019-03-15T03:37:50.725Z,8.41
2019-03-15T03:38:17.585Z,8.38
2019-03-15T03:38:44.368Z,8.33
2019-03-15T03:39:11.470Z,8.41
2019-03-15T03:39:37.580Z,8.33
2019-03-15T03:40:03.749Z,8.36
2019-03-15T03:40:30.844Z,8.28
2019-03-15T03:40:57.094Z,8.31
2019-03-15T03:41:23.419Z,8.24
2019-03-15T03:41:49.599Z,8.31
2019-03-15T03:42:16.278Z,8.36
2019-03-15T03:42:42.387Z,8.37
2019-03-15T03:43:08.539Z,8.38
2019-03-15T03:43:34.647Z,8.42
2019-03-15T03:44:00.766Z,8.33
2019-03-15T03:44:26.901Z,8.36
2019-03-15T03:44:53.004Z,8.41
2019-03-15T03:45:19.116Z,8.44
2019-03-15T03:45:45.259Z,8.41
2019-03-15T03:46:11.365Z,8.46
2019-03-15T03:46:37.807Z,8.46
2019-03-15T03:47:03.913Z,8.48
2019-03-15T03:47:32.535Z,8.42
2019-03-15T03:47:57.110Z,8.44
2019-03-15T03:48:25.181Z,8.41
2019-03-15T03:48:51.326Z,8.44
2019-03-15T03:49:17.658Z,8.44
2019-03-15T03:49:43.766Z,8.34
2019-03-15T03:50:09.901Z,8.42
2019-03-15T03:50:36.003Z,8.36
2019-03-15T03:51:03.120Z,8.37
2019-03-15T03:51:29.684Z,8.44
2019-03-15T03:51:55.787Z,8.49
2019-03-15T03:52:21.889Z,8.41
2019-03-15T03:52:48.001Z,8.45
2019-03-15T03:53:14.109Z,8.37
2019-03-15T03:53:40.217Z,8.41
2019-03-15T03:54:06.363Z,8.48
2019-03-15T03:54:32.464Z,8.48
2019-03-15T03:54:58.571Z,8.42
2019-03-15T03:55:25.532Z,8.49
2019-03-15T03:55:51.842Z,8.52
2019-03-15T03:56:17.909Z,8.42
2019-03-15T03:56:44.024Z,8.45
2019-03-15T03:57:10.552Z,8.52
2019-03-15T03:57:36.724Z,8.48
2019-03-15T03:58:02.789Z,8.37
2019-03-15T03:58:28.895Z,8.38
2019-03-15T03:58:55.034Z,8.38
2019-03-15T03:59:21.175Z,8.46
2019-03-15T03:59:47.289Z,8.48
2019-03-15T04:00:13.493Z,8.45
2019-03-15T04:00:39.591Z,8.46
2019-03-15T04:01:07.498Z,8.49
2019-03-15T04:01:32.786Z,8.53
2019-03-15T04:01:58.894Z,8.53
2019-03-15T04:02:25.048Z,8.42
2019-03-15T04:02:53.349Z,8.52
2019-03-15T04:03:18.268Z,8.48
2019-03-15T04:03:44.403Z,8.42
2019-03-15T04:04:10.514Z,8.55
2019-03-15T04:04:36.620Z,8.53
2019-03-15T04:05:02.734Z,8.51
2019-03-15T04:05:28.885Z,8.58
2019-03-15T04:05:55.210Z,8.48
2019-03-15T04:06:21.342Z,8.42
2019-03-15T04:06:47.461Z,8.42
2019-03-15T04:07:13.559Z,8.45
2019-03-15T04:07:39.664Z,8.45
2019-03-15T04:08:05.775Z,8.46
2019-03-15T04:08:31.883Z,8.46
2019-03-15T04:08:57.990Z,8.46
2019-03-15T04:09:24.102Z,8.48
2019-03-15T04:09:50.433Z,8.48
2019-03-15T04:10:16.725Z,8.49
2019-03-15T04:10:42.831Z,8.41
2019-03-15T04:11:08.939Z,8.45
2019-03-15T04:11:35.049Z,8.33
2019-03-15T04:12:04.125Z,8.41
2019-03-15T04:12:30.232Z,8.44
2019-03-15T04:12:56.342Z,8.41
2019-03-15T04:13:22.508Z,8.48
2019-03-15T04:13:48.613Z,8.48
2019-03-15T04:14:14.720Z,8.48
2019-03-15T04:14:40.821Z,8.48
2019-03-15T04:15:06.927Z,8.52
2019-03-15T04:15:33.038Z,8.58
2019-03-15T04:15:59.197Z,8.52
2019-03-15T04:16:25.403Z,8.55
2019-03-15T04:16:51.481Z,8.51
2019-03-15T04:17:17.890Z,8.51
2019-03-15T04:17:43.989Z,8.48
2019-03-15T04:18:10.132Z,8.45
2019-03-15T04:18:36.234Z,8.48
2019-03-15T04:19:02.364Z,8.41
2019-03-15T04:19:28.477Z,8.44
2019-03-15T04:19:55.569Z,8.51
2019-03-15T04:20:21.687Z,8.51
2019-03-15T04:20:47.846Z,8.53
2019-03-15T04:21:13.946Z,8.53
2019-03-15T04:21:40.063Z,8.44
2019-03-15T04:22:06.190Z,8.53
2019-03-15T04:22:32.294Z,8.53
2019-03-15T04:22:59.544Z,8.58
2019-03-15T04:23:25.662Z,8.45
2019-03-15T04:23:52.755Z,8.49
2019-03-15T04:24:18.870Z,8.51
2019-03-15T04:24:44.964Z,8.55
2019-03-15T04:25:12.059Z,8.49
2019-03-15T04:25:40.493Z,8.55
2019-03-15T04:26:05.307Z,8.53
2019-03-15T04:26:31.413Z,8.64
2019-03-15T04:26:57.764Z,8.61
2019-03-15T04:27:23.912Z,8.6
2019-03-15T04:27:50.020Z,8.61
2019-03-15T04:28:16.128Z,8.64
2019-03-15T04:28:42.231Z,8.61
2019-03-15T04:29:08.344Z,8.6
2019-03-15T04:29:34.452Z,8.71
2019-03-15T04:30:00.555Z,8.64
2019-03-15T04:30:27.649Z,8.64
2019-03-15T04:30:53.814Z,8.61
2019-03-15T04:31:19.924Z,8.61
2019-03-15T04:31:46.033Z,8.64
2019-03-15T04:32:12.238Z,8.63
2019-03-15T04:32:39.387Z,8.63
2019-03-15T04:33:05.486Z,8.67
2019-03-15T04:33:31.625Z,8.56
2019-03-15T04:33:57.740Z,8.52
2019-03-15T04:34:23.841Z,8.63
2019-03-15T04:34:49.956Z,8.64
2019-03-15T04:35:16.078Z,8.58
2019-03-15T04:35:42.190Z,8.61
2019-03-15T04:36:08.294Z,8.66
2019-03-15T04:36:34.406Z,8.58
2019-03-15T04:37:00.513Z,8.61
2019-03-15T04:37:27.645Z,8.61
2019-03-15T04:37:53.749Z,8.53
2019-03-15T04:38:19.856Z,8.44
2019-03-15T04:38:45.962Z,8.45
2019-03-15T04:39:13.884Z,8.48
2019-03-15T04:39:39.186Z,8.56
2019-03-15T04:40:05.327Z,8.49
2019-03-15T04:40:31.435Z,8.51
2019-03-15T04:40:57.549Z,8.42
2019-03-15T04:41:23.657Z,8.42
2019-03-15T04:41:49.760Z,8.52
2019-03-15T04:42:15.868Z,8.56
2019-03-15T04:42:42.024Z,8.69
2019-03-15T04:43:08.133Z,8.66
2019-03-15T04:43:34.251Z,8.61
2019-03-15T04:44:00.357Z,8.63
2019-03-15T04:44:26.547Z,8.6
2019-03-15T04:44:52.657Z,8.63
2019-03-15T04:45:18.769Z,8.66
2019-03-15T04:45:44.862Z,8.51
2019-03-15T04:46:10.973Z,8.6
2019-03-15T04:46:37.077Z,8.56
2019-03-15T04:47:03.182Z,8.53
2019-03-15T04:47:29.290Z,8.48
2019-03-15T04:47:55.399Z,8.42
2019-03-15T04:48:21.534Z,8.56
2019-03-15T04:48:47.644Z,8.53
2019-03-15T04:49:13.781Z,8.66
2019-03-15T04:49:39.895Z,8.44
2019-03-15T04:50:06.032Z,8.51
2019-03-15T04:50:32.140Z,8.55
2019-03-15T04:50:58.307Z,8.64
2019-03-15T04:51:24.414Z,8.6
2019-03-15T04:51:50.524Z,8.66
2019-03-15T04:52:16.629Z,8.74
2019-03-15T04:52:42.739Z,8.73
2019-03-15T04:53:08.845Z,8.78
2019-03-15T04:53:34.984Z,8.74
2019-03-15T04:54:01.113Z,8.79
2019-03-15T04:54:27.247Z,8.74
2019-03-15T04:54:53.401Z,8.81
2019-03-15T04:55:19.508Z,8.7
2019-03-15T04:55:45.648Z,8.74
2019-03-15T04:56:11.746Z,8.71
2019-03-15T04:56:37.857Z,8.6
2019-03-15T04:57:03.960Z,8.42
2019-03-15T04:57:30.075Z,8.42
2019-03-15T04:57:56.178Z,8.55
2019-03-15T04:58:22.313Z,8.56
2019-03-15T04:58:48.419Z,8.55
2019-03-15T04:59:14.547Z,8.63
2019-03-15T04:59:40.688Z,8.66
2019-03-15T05:00:06.799Z,8.7
2019-03-15T05:00:32.903Z,8.6
2019-03-15T05:00:59.016Z,8.64
2019-03-15T05:01:25.125Z,8.63
2019-03-15T05:01:51.239Z,8.6
2019-03-15T05:02:17.349Z,8.69
2019-03-15T05:02:43.450Z,8.46
2019-03-15T05:03:09.559Z,8.44
2019-03-15T05:03:35.667Z,8.33
2019-03-15T05:04:01.799Z,8.46
2019-03-15T05:04:27.905Z,8.42
2019-03-15T05:04:54.009Z,8.44
2019-03-15T05:05:21.111Z,8.37
2019-03-15T05:05:47.220Z,8.41
2019-03-15T05:06:15.311Z,8.53
2019-03-15T05:06:41.419Z,8.38
2019-03-15T05:07:07.524Z,8.46
2019-03-15T05:07:33.641Z,8.46
2019-03-15T05:07:59.744Z,8.42
2019-03-15T05:08:25.850Z,8.48
2019-03-15T05:08:51.954Z,8.48
2019-03-15T05:09:18.104Z,8.42
2019-03-15T05:09:44.240Z,8.38
2019-03-15T05:10:10.345Z,8.52
2019-03-15T05:10:36.474Z,8.53
2019-03-15T05:11:02.586Z,8.56
2019-03-15T05:11:28.726Z,8.51
2019-03-15T05:11:54.871Z,8.55
2019-03-15T05:12:20.973Z,8.55
2019-03-15T05:12:47.085Z,8.61
2019-03-15T05:13:13.196Z,8.46
2019-03-15T05:13:39.303Z,8.44
2019-03-15T05:14:05.413Z,8.28
2019-03-15T05:14:31.543Z,8.38
2019-03-15T05:14:57.649Z,8.38
2019-03-15T05:15:23.757Z,8.36
2019-03-15T05:15:49.867Z,8.36
2019-03-15T05:16:15.976Z,8.34
2019-03-15T05:16:42.087Z,8.3
2019-03-15T05:17:08.198Z,8.42
2019-03-15T05:17:34.313Z,8.42
2019-03-15T05:18:00.420Z,8.46
2019-03-15T05:18:26.524Z,8.42
2019-03-15T05:18:52.634Z,8.56
2019-03-15T05:19:18.748Z,8.58
2019-03-15T05:19:44.854Z,8.42
2019-03-15T05:20:10.964Z,8.61
2019-03-15T05:20:37.088Z,8.49
2019-03-15T05:21:03.204Z,8.52
2019-03-15T05:21:29.303Z,8.46
2019-03-15T05:21:55.407Z,8.42
2019-03-15T05:22:21.552Z,8.36
2019-03-15T05:22:47.659Z,8.45
2019-03-15T05:23:13.771Z,8.45
2019-03-15T05:23:39.880Z,8.44
2019-03-15T05:24:05.984Z,8.33
2019-03-15T05:24:32.098Z,8.38
2019-03-15T05:24:58.208Z,8.38
2019-03-15T05:25:24.327Z,8.41
2019-03-15T05:25:51.038Z,8.36
2019-03-15T05:26:17.130Z,8.41
2019-03-15T05:26:43.240Z,8.38
2019-03-15T05:27:09.346Z,8.31
2019-03-15T05:27:35.478Z,8.3
2019-03-15T05:28:01.579Z,8.34
2019-03-15T05:28:27.693Z,8.38
2019-03-15T05:28:53.795Z,8.42
2019-03-15T05:29:19.927Z,8.41
2019-03-15T05:29:46.037Z,8.38
2019-03-15T05:30:12.179Z,8.41
2019-03-15T05:30:38.285Z,8.41
2019-03-15T05:31:04.564Z,8.38
2019-03-15T05:31:30.620Z,8.44
2019-03-15T05:31:56.735Z,8.44
2019-03-15T05:32:22.849Z,8.45
2019-03-15T05:32:49.943Z,8.46
2019-03-15T05:33:16.058Z,8.44
2019-03-15T05:33:42.164Z,8.42
2019-03-15T05:34:08.420Z,8.44
2019-03-15T05:34:34.559Z,8.44
2019-03-15T05:35:00.684Z,8.31
2019-03-15T05:35:26.775Z,8.42
2019-03-15T05:35:52.950Z,8.36
2019-03-15T05:36:19.039Z,8.41
2019-03-15T05:36:45.149Z,8.33
2019-03-15T05:37:11.259Z,8.44
2019-03-15T05:37:37.364Z,8.28
2019-03-15T05:38:03.476Z,8.38
2019-03-15T05:38:29.585Z,8.44
2019-03-15T05:38:56.173Z,8.41
2019-03-15T05:39:22.288Z,8.53
2019-03-15T05:39:48.429Z,8.55
2019-03-15T05:40:14.543Z,8.66
2019-03-15T05:40:40.647Z,8.53
2019-03-15T05:41:06.760Z,8.48
2019-03-15T05:41:32.898Z,8.44
2019-03-15T05:41:59.037Z,8.51
2019-03-15T05:42:25.140Z,8.55
2019-03-15T05:42:51.250Z,8.48
2019-03-15T05:43:17.359Z,8.33
2019-03-15T05:43:43.470Z,8.49
2019-03-15T05:44:09.599Z,8.41
2019-03-15T05:44:35.715Z,8.42
2019-03-15T05:45:01.825Z,8.42
2019-03-15T05:45:27.939Z,8.34
2019-03-15T05:45:54.041Z,8.31
2019-03-15T05:46:20.191Z,8.33
2019-03-15T05:46:46.331Z,8.28
2019-03-15T05:47:12.428Z,8.31
2019-03-15T05:47:38.534Z,8.3
2019-03-15T05:48:04.643Z,8.37
2019-03-15T05:48:30.752Z,8.33
2019-03-15T05:48:56.855Z,8.28
2019-03-15T05:49:22.966Z,8.38
2019-03-15T05:49:49.078Z,8.42
2019-03-15T05:50:15.177Z,8.36
2019-03-15T05:50:41.291Z,8.33